createdAt,value
2022-12-20T00:02:00.327Z,7.20
2022-12-20T00:05:36.989Z,9.23
2022-12-20T00:09:09.919Z,5.63
2022-12-20T00:12:42.134Z,10.43
2022-12-20T00:16:19.989Z,10.53
2022-12-20T00:19:52.101Z,6.53
2022-12-20T00:23:23.959Z,7.93
2022-12-20T00:26:56.090Z,7.70
2022-12-20T00:30:28.092Z,6.50
2022-12-20T00:34:01.149Z,5.95
2022-12-20T00:37:33.376Z,8.38
2022-12-20T00:41:10.874Z,6.57
2022-12-20T00:44:42.783Z,6.72
2022-12-20T00:48:14.762Z,8.43
2022-12-20T00:51:46.578Z,8.27
2022-12-20T00:55:18.683Z,7.45
2022-12-20T00:58:50.506Z,7.28
2022-12-20T01:02:22.641Z,6.25
2022-12-20T01:05:56.718Z,11.20
2022-12-20T01:09:28.718Z,9.55
2022-12-20T01:13:00.352Z,6.18
2022-12-20T01:16:37.325Z,8.10
2022-12-20T01:20:09.787Z,4.80
2022-12-20T01:23:41.909Z,5.45
2022-12-20T01:27:13.848Z,8.70
2022-12-20T01:30:45.877Z,6.93
2022-12-20T01:34:17.927Z,8.68
2022-12-20T01:37:50.062Z,5.57
2022-12-20T01:41:23.118Z,6.40
2022-12-20T01:44:58.001Z,5.78
2022-12-20T01:48:29.716Z,7.65
2022-12-20T01:52:18.743Z,5.47
2022-12-20T01:55:51.007Z,7.97
2022-12-20T01:59:23.782Z,6.65
2022-12-20T02:02:58.854Z,6.07
2022-12-20T02:06:32.014Z,6.28
2022-12-20T02:10:04.966Z,3.38
2022-12-20T02:13:43.246Z,5.70
2022-12-20T02:17:52.893Z,6.23
2022-12-20T02:21:46.159Z,5.35
2022-12-20T02:25:32.713Z,9.77
2022-12-20T02:29:33.255Z,5.30
2022-12-20T02:33:10.430Z,6.72
2022-12-20T02:36:42.338Z,7.10
2022-12-20T02:40:17.546Z,7.60
2022-12-20T02:44:12.801Z,4.25
2022-12-20T02:47:54.554Z,5.35
2022-12-20T02:51:30.540Z,6.35
2022-12-20T02:55:04.586Z,6.53
2022-12-20T02:58:51.209Z,8.02
2022-12-20T03:02:24.955Z,4.93
2022-12-20T03:05:57.258Z,6.10
2022-12-20T03:09:31.509Z,4.30
2022-12-20T03:13:04.259Z,8.63
2022-12-20T03:16:35.921Z,8.53
2022-12-20T03:20:11.274Z,5.68
2022-12-20T03:23:45.608Z,4.95
2022-12-20T03:27:17.596Z,6.20
2022-12-20T03:30:50.137Z,5.93
2022-12-20T03:34:22.141Z,6.50
2022-12-20T03:37:54.359Z,5.22
2022-12-20T03:41:26.684Z,5.83
2022-12-20T03:44:58.418Z,5.75
2022-12-20T03:48:30.680Z,5.53
2022-12-20T03:52:02.461Z,4.40
2022-12-20T03:55:35.154Z,4.53
2022-12-20T03:59:06.788Z,4.68
2022-12-20T04:02:39.113Z,5.05
2022-12-20T04:06:10.977Z,3.33
2022-12-20T04:09:42.938Z,4.65
2022-12-20T04:13:14.728Z,6.38
2022-12-20T04:16:47.016Z,5.20
2022-12-20T04:20:19.233Z,5.40
2022-12-20T04:23:51.729Z,6.25
2022-12-20T04:27:23.495Z,4.90
2022-12-20T04:30:55.929Z,5.10
2022-12-20T04:34:27.785Z,5.57
2022-12-20T04:37:59.827Z,3.97
2022-12-20T04:41:31.643Z,5.23
2022-12-20T04:45:04.700Z,5.20
2022-12-20T04:48:56.253Z,3.78
2022-12-20T04:52:48.198Z,5.20
2022-12-20T04:56:22.199Z,5.20
2022-12-20T04:59:54.618Z,3.65
2022-12-20T05:03:26.781Z,6.70
2022-12-20T05:06:59.776Z,3.70
2022-12-20T05:10:31.527Z,4.78
2022-12-20T05:14:03.529Z,4.72
2022-12-20T05:17:35.441Z,4.97
2022-12-20T05:21:26.106Z,5.32
2022-12-20T05:25:16.275Z,4.85
2022-12-20T05:28:48.718Z,4.67
2022-12-20T05:32:20.979Z,6.40
2022-12-20T05:35:54.325Z,6.55
2022-12-20T05:39:26.326Z,6.80
2022-12-20T05:42:58.774Z,6.65
2022-12-20T05:46:30.552Z,4.95
2022-12-20T05:50:04.068Z,5.13
2022-12-20T05:53:35.822Z,7.67
2022-12-20T05:57:08.847Z,4.43
2022-12-20T06:00:42.168Z,4.22
2022-12-20T06:04:14.588Z,7.33
2022-12-20T06:07:46.339Z,7.00
2022-12-20T06:11:18.314Z,5.53
2022-12-20T06:14:50.498Z,5.93
2022-12-20T06:18:24.071Z,7.20
2022-12-20T06:21:55.734Z,9.90
2022-12-20T06:25:28.838Z,8.80
2022-12-20T06:29:02.225Z,6.33
2022-12-20T06:32:34.712Z,5.45
2022-12-20T06:36:06.762Z,5.07
2022-12-20T06:39:38.723Z,5.90
2022-12-20T06:43:10.434Z,4.85
2022-12-20T06:46:42.536Z,4.82
2022-12-20T06:50:14.425Z,5.30
2022-12-20T06:53:46.446Z,4.32
2022-12-20T06:57:18.168Z,4.97
2022-12-20T07:00:50.416Z,6.28
2022-12-20T07:04:22.248Z,3.90
2022-12-20T07:07:54.384Z,8.90
2022-12-20T07:11:26.260Z,6.88
2022-12-20T07:14:58.370Z,5.23
2022-12-20T07:18:30.690Z,5.50
2022-12-20T07:22:04.036Z,3.88
2022-12-20T07:25:35.767Z,4.17
2022-12-20T07:29:13.406Z,5.25
2022-12-20T07:32:48.843Z,4.28
2022-12-20T07:36:21.100Z,5.10
2022-12-20T07:39:52.909Z,4.70
2022-12-20T07:43:25.579Z,8.48
2022-12-20T07:46:57.382Z,5.78
2022-12-20T07:50:29.999Z,6.37
2022-12-20T07:54:35.061Z,5.07
2022-12-20T07:58:09.857Z,7.63
2022-12-20T08:01:43.899Z,5.23
2022-12-20T08:05:17.720Z,6.07
2022-12-20T08:08:53.626Z,8.63
2022-12-20T08:12:29.141Z,7.88
2022-12-20T08:16:01.520Z,7.77
2022-12-20T08:19:33.665Z,5.78
2022-12-20T08:23:05.693Z,6.88
2022-12-20T08:26:41.953Z,5.83
2022-12-20T08:30:14.138Z,5.57
2022-12-20T08:33:46.587Z,8.82
2022-12-20T08:37:18.476Z,5.00
2022-12-20T08:40:50.744Z,7.57
2022-12-20T08:44:23.632Z,4.70
2022-12-20T08:47:55.836Z,8.02
2022-12-20T08:51:27.733Z,9.13
2022-12-20T08:55:01.773Z,9.38
2022-12-20T08:58:35.050Z,7.00
2022-12-20T09:02:07.086Z,8.00
2022-12-20T09:05:45.305Z,7.28
2022-12-20T09:09:17.296Z,8.07
2022-12-20T09:12:48.995Z,7.73
2022-12-20T09:16:26.165Z,4.95
2022-12-20T09:19:58.102Z,5.88
2022-12-20T09:23:31.180Z,9.25
2022-12-20T09:27:03.257Z,7.93
2022-12-20T09:30:35.349Z,9.43
2022-12-20T09:34:07.279Z,6.20
2022-12-20T09:37:40.795Z,6.70
2022-12-20T09:41:37.376Z,6.85
2022-12-20T09:45:15.378Z,9.93
2022-12-20T09:48:47.640Z,8.50
2022-12-20T09:52:29.850Z,8.95
2022-12-20T09:56:09.738Z,8.18
2022-12-20T09:59:49.254Z,6.32
2022-12-20T10:03:29.319Z,9.20
2022-12-20T10:07:49.712Z,9.10
2022-12-20T10:11:46.242Z,9.70
2022-12-20T10:15:27.990Z,6.03
2022-12-20T10:19:21.309Z,7.53
2022-12-20T10:23:00.567Z,9.50
2022-12-20T10:26:34.559Z,9.17
2022-12-20T10:30:15.896Z,5.28
2022-12-20T10:33:47.629Z,5.50
2022-12-20T10:37:19.720Z,7.20
2022-12-20T10:41:19.997Z,6.73
2022-12-20T10:44:47.212Z,7.25
2022-12-20T10:48:28.738Z,6.03
2022-12-20T10:52:12.723Z,6.60
2022-12-20T10:55:44.551Z,8.75
2022-12-20T10:59:17.386Z,6.72
2022-12-20T11:03:10.409Z,6.37
2022-12-20T11:06:44.991Z,6.90
2022-12-20T11:10:21.361Z,8.23
2022-12-20T11:13:54.213Z,8.90
2022-12-20T11:17:34.532Z,9.07
2022-12-20T11:21:12.707Z,9.00
2022-12-20T11:25:04.346Z,5.93
2022-12-20T11:28:46.624Z,6.23
2022-12-20T11:32:21.336Z,6.53
2022-12-20T11:36:19.709Z,7.22
2022-12-20T11:40:16.411Z,6.63
2022-12-20T11:44:26.603Z,5.30
2022-12-20T11:48:24.776Z,6.82
2022-12-20T11:52:06.229Z,6.63
2022-12-20T11:55:43.066Z,8.50
2022-12-20T11:59:37.810Z,8.32
2022-12-20T12:03:25.402Z,7.25
2022-12-20T12:07:04.588Z,7.63
2022-12-20T12:10:43.263Z,8.57
2022-12-20T12:14:26.756Z,6.05
2022-12-20T12:18:20.609Z,6.83
2022-12-20T12:22:06.213Z,6.53
2022-12-20T12:25:38.532Z,8.68
2022-12-20T12:29:14.097Z,8.07
2022-12-20T12:32:51.041Z,8.70
2022-12-20T12:36:46.530Z,6.32
2022-12-20T12:40:53.300Z,9.02
2022-12-20T12:44:38.952Z,7.97
2022-12-20T12:48:31.822Z,9.55
2022-12-20T12:52:05.389Z,10.48
2022-12-20T12:56:02.394Z,8.20
2022-12-20T12:59:49.948Z,10.13
2022-12-20T13:03:43.565Z,8.82
2022-12-20T13:07:33.353Z,7.63
2022-12-20T13:11:13.524Z,8.33
2022-12-20T13:14:50.028Z,6.57
2022-12-20T13:18:24.191Z,7.55
2022-12-20T13:22:17.260Z,9.63
2022-12-20T13:25:54.380Z,10.00
2022-12-20T13:29:35.251Z,6.43
2022-12-20T13:33:24.475Z,8.53
2022-12-20T13:36:59.366Z,9.23
2022-12-20T13:40:59.241Z,10.75
2022-12-20T13:44:43.044Z,10.23
2022-12-20T13:48:23.025Z,9.80
2022-12-20T13:52:18.147Z,11.63
2022-12-20T13:55:50.504Z,8.93
2022-12-20T13:59:27.171Z,12.73
2022-12-20T14:03:02.133Z,9.95
2022-12-20T14:06:34.974Z,12.82
2022-12-20T14:10:20.877Z,11.77
2022-12-20T14:13:55.835Z,11.77
2022-12-20T14:17:33.215Z,12.27
2022-12-20T14:21:06.088Z,8.18
2022-12-20T14:24:43.219Z,7.40
2022-12-20T14:28:23.242Z,11.52
2022-12-20T14:31:59.123Z,15.63
2022-12-20T14:35:31.674Z,11.60
2022-12-20T14:39:24.836Z,10.93
2022-12-20T14:42:57.391Z,12.50
2022-12-20T14:46:31.129Z,14.13
2022-12-20T14:50:17.890Z,12.77
2022-12-20T14:53:51.428Z,10.77
2022-12-20T14:57:52.021Z,14.85
2022-12-20T15:01:27.908Z,14.23
2022-12-20T15:05:01.030Z,16.55
2022-12-20T15:08:33.967Z,13.95
2022-12-20T15:12:05.910Z,11.63
2022-12-20T15:15:38.066Z,9.60
2022-12-20T15:19:10.564Z,9.23
2022-12-20T15:22:42.976Z,15.13
2022-12-20T15:26:21.538Z,7.90
2022-12-20T15:29:54.753Z,14.98
2022-12-20T15:33:31.035Z,14.65
2022-12-20T15:37:05.030Z,16.40
2022-12-20T15:40:37.713Z,16.42
2022-12-20T15:44:27.872Z,13.02
2022-12-20T15:48:00.199Z,15.13
2022-12-20T15:51:37.852Z,13.75
2022-12-20T15:55:11.796Z,10.55
2022-12-20T15:58:44.241Z,11.07
2022-12-20T16:02:18.994Z,11.88
2022-12-20T16:05:51.548Z,10.73
2022-12-20T16:09:26.107Z,10.77
2022-12-20T16:12:58.375Z,11.47
2022-12-20T16:16:33.226Z,8.43
2022-12-20T16:20:06.414Z,9.90
2022-12-20T16:23:39.159Z,13.73
2022-12-20T16:27:11.401Z,13.32
2022-12-20T16:30:46.529Z,9.93
2022-12-20T16:34:23.299Z,12.17
2022-12-20T16:37:57.188Z,10.85
2022-12-20T16:41:30.821Z,9.02
2022-12-20T16:45:03.348Z,12.85
2022-12-20T16:48:35.958Z,13.53
2022-12-20T16:52:16.177Z,11.73
2022-12-20T16:55:48.666Z,10.25
2022-12-20T16:59:22.797Z,11.53
2022-12-20T17:02:56.354Z,13.52
2022-12-20T17:06:31.387Z,11.68
2022-12-20T17:10:12.896Z,11.53
2022-12-20T17:13:46.732Z,12.95
2022-12-20T17:17:18.928Z,15.00
2022-12-20T17:20:50.871Z,12.55
2022-12-20T17:24:23.684Z,12.63
2022-12-20T17:27:55.760Z,10.32
2022-12-20T17:31:39.779Z,12.15
2022-12-20T17:35:32.666Z,11.63
2022-12-20T17:39:04.905Z,11.85
2022-12-20T17:42:36.696Z,10.45
2022-12-20T17:46:09.376Z,10.27
2022-12-20T17:49:41.483Z,13.88
2022-12-20T17:53:13.771Z,14.63
2022-12-20T17:56:46.254Z,14.90
2022-12-20T18:00:31.794Z,14.67
2022-12-20T18:04:10.682Z,13.02
2022-12-20T18:07:42.928Z,15.85
2022-12-20T18:11:15.719Z,16.07
2022-12-20T18:14:49.046Z,12.82
2022-12-20T18:18:20.989Z,12.63
2022-12-20T18:21:53.088Z,7.27
2022-12-20T18:25:24.819Z,10.50
2022-12-20T18:29:00.269Z,13.52
2022-12-20T18:32:32.052Z,7.43
2022-12-20T18:36:08.119Z,10.20
2022-12-20T18:39:40.159Z,9.88
2022-12-20T18:43:12.236Z,9.48
2022-12-20T18:46:44.169Z,9.17
2022-12-20T18:50:17.719Z,15.05
2022-12-20T18:53:51.363Z,8.98
2022-12-20T18:57:23.394Z,7.00
2022-12-20T19:01:00.268Z,8.77
2022-12-20T19:04:32.696Z,6.13
2022-12-20T19:08:04.665Z,10.70
2022-12-20T19:11:37.373Z,10.57
2022-12-20T19:15:09.479Z,8.63
2022-12-20T19:18:43.102Z,13.90
2022-12-20T19:22:14.888Z,7.20
2022-12-20T19:25:47.123Z,7.63
2022-12-20T19:29:18.907Z,9.48
2022-12-20T19:32:51.139Z,8.17
2022-12-20T19:36:25.756Z,9.60
2022-12-20T19:39:58.081Z,7.57
2022-12-20T19:43:29.997Z,9.25
2022-12-20T19:47:05.408Z,7.13
2022-12-20T19:50:37.501Z,7.80
2022-12-20T19:54:09.880Z,6.35
2022-12-20T19:57:41.635Z,7.67
2022-12-20T20:01:15.452Z,8.23
2022-12-20T20:04:47.271Z,7.70
2022-12-20T20:08:19.641Z,7.10
2022-12-20T20:11:51.807Z,10.00
2022-12-20T20:15:23.972Z,7.50
2022-12-20T20:18:56.659Z,7.88
2022-12-20T20:22:28.882Z,8.03
2022-12-20T20:26:00.967Z,6.72
2022-12-20T20:29:33.077Z,10.02
2022-12-20T20:33:05.151Z,10.17
2022-12-20T20:36:37.455Z,10.18
2022-12-20T20:40:09.839Z,9.65
2022-12-20T20:43:43.124Z,10.77
2022-12-20T20:47:14.978Z,7.38
2022-12-20T20:50:47.574Z,6.22
2022-12-20T20:54:19.433Z,8.38
2022-12-20T20:57:51.938Z,7.27
2022-12-20T21:01:23.913Z,9.00
2022-12-20T21:05:35.744Z,9.40
2022-12-20T21:08:48.010Z,10.17
2022-12-20T21:12:21.177Z,11.32
2022-12-20T21:15:54.017Z,8.98
2022-12-20T21:19:26.337Z,10.83
2022-12-20T21:22:58.409Z,9.07
2022-12-20T21:26:30.740Z,10.73
2022-12-20T21:30:03.773Z,10.38
2022-12-20T21:33:35.973Z,6.73
2022-12-20T21:37:08.409Z,9.88
2022-12-20T21:40:40.826Z,10.23
2022-12-20T21:44:13.010Z,11.03
2022-12-20T21:47:45.001Z,8.95
2022-12-20T21:51:21.755Z,8.07
2022-12-20T21:54:54.251Z,11.17
2022-12-20T21:58:27.740Z,9.57
2022-12-20T22:02:00.250Z,10.05
2022-12-20T22:05:32.348Z,9.15
2022-12-20T22:09:09.260Z,6.13
2022-12-20T22:12:41.115Z,7.45
2022-12-20T22:16:28.461Z,9.48
2022-12-20T22:20:01.584Z,7.93
2022-12-20T22:23:34.866Z,11.60
2022-12-20T22:27:11.301Z,9.10
2022-12-20T22:30:46.511Z,9.97
2022-12-20T22:34:21.404Z,7.53
2022-12-20T22:37:55.035Z,10.60
2022-12-20T22:41:32.593Z,12.23
2022-12-20T22:45:05.729Z,11.53
2022-12-20T22:48:39.151Z,12.05
2022-12-20T22:52:11.381Z,11.40
2022-12-20T22:55:43.295Z,10.67
2022-12-20T22:59:15.331Z,12.07
2022-12-20T23:02:47.576Z,12.30
2022-12-20T23:06:20.956Z,8.93
2022-12-20T23:09:52.711Z,13.07
2022-12-20T23:13:43.887Z,12.50
2022-12-20T23:17:15.764Z,11.23
2022-12-20T23:21:10.516Z,10.13
2022-12-20T23:24:42.275Z,12.18
2022-12-20T23:28:14.649Z,11.18
2022-12-20T23:31:46.503Z,11.27
2022-12-20T23:35:20.311Z,10.93
2022-12-20T23:38:52.187Z,10.60
2022-12-20T23:42:25.081Z,10.50
2022-12-20T23:46:05.655Z,10.20
2022-12-20T23:49:37.782Z,10.90
2022-12-20T23:53:09.896Z,10.63
2022-12-20T23:56:41.962Z,12.23
